sensor_id;sensor_type;location;lat;lon;timestamp;P1;durP1;ratioP1;P2;durP2;ratioP2
75191;SDS011;63771;52.580;9.734;2023-05-07T00:01:59;12.48;;;10.13;;
75191;SDS011;63771;52.580;9.734;2023-05-07T00:04:24;12.50;;;11.18;;
75191;SDS011;63771;52.580;9.734;2023-05-07T00:06:49;18.17;;;11.17;;
75191;SDS011;63771;52.580;9.734;2023-05-07T00:09:15;13.80;;;10.43;;
75191;SDS011;63771;52.580;9.734;2023-05-07T00:11:41;14.93;;;11.02;;
75191;SDS011;63771;52.580;9.734;2023-05-07T00:14:06;11.27;;;9.20;;
75191;SDS011;63771;52.580;9.734;2023-05-07T00:16:32;13.07;;;11.00;;
75191;SDS011;63771;52.580;9.734;2023-05-07T00:18:57;14.80;;;10.20;;
75191;SDS011;63771;52.580;9.734;2023-05-07T00:21:22;14.55;;;10.25;;
75191;SDS011;63771;52.580;9.734;2023-05-07T00:23:51;13.27;;;10.25;;
75191;SDS011;63771;52.580;9.734;2023-05-07T00:26:16;14.05;;;11.43;;
75191;SDS011;63771;52.580;9.734;2023-05-07T00:28:42;12.40;;;9.13;;
75191;SDS011;63771;52.580;9.734;2023-05-07T00:31:07;13.73;;;10.43;;
75191;SDS011;63771;52.580;9.734;2023-05-07T00:33:32;13.13;;;9.80;;
75191;SDS011;63771;52.580;9.734;2023-05-07T00:35:58;12.47;;;10.27;;
75191;SDS011;63771;52.580;9.734;2023-05-07T00:38:23;11.83;;;9.60;;
75191;SDS011;63771;52.580;9.734;2023-05-07T00:40:48;13.10;;;10.43;;
75191;SDS011;63771;52.580;9.734;2023-05-07T00:43:13;12.33;;;9.77;;
75191;SDS011;63771;52.580;9.734;2023-05-07T00:45:39;14.20;;;10.80;;
75191;SDS011;63771;52.580;9.734;2023-05-07T00:48:05;10.63;;;9.38;;
75191;SDS011;63771;52.580;9.734;2023-05-07T00:50:31;13.97;;;10.83;;
75191;SDS011;63771;52.580;9.734;2023-05-07T00:52:57;13.27;;;10.05;;
75191;SDS011;63771;52.580;9.734;2023-05-07T00:55:23;12.85;;;9.93;;
75191;SDS011;63771;52.580;9.734;2023-05-07T00:57:49;12.27;;;9.90;;
75191;SDS011;63771;52.580;9.734;2023-05-07T01:00:16;14.35;;;9.52;;
75191;SDS011;63771;52.580;9.734;2023-05-07T01:02:41;14.95;;;10.52;;
75191;SDS011;63771;52.580;9.734;2023-05-07T01:05:09;14.27;;;9.68;;
75191;SDS011;63771;52.580;9.734;2023-05-07T01:07:37;16.67;;;10.65;;
75191;SDS011;63771;52.580;9.734;2023-05-07T01:10:04;16.15;;;9.57;;
75191;SDS011;63771;52.580;9.734;2023-05-07T01:12:31;13.95;;;10.70;;
75191;SDS011;63771;52.580;9.734;2023-05-07T01:14:57;12.45;;;10.55;;
75191;SDS011;63771;52.580;9.734;2023-05-07T01:17:23;11.95;;;9.77;;
75191;SDS011;63771;52.580;9.734;2023-05-07T01:19:48;14.48;;;10.35;;
75191;SDS011;63771;52.580;9.734;2023-05-07T01:22:15;14.93;;;10.82;;
75191;SDS011;63771;52.580;9.734;2023-05-07T01:24:45;13.65;;;9.52;;
75191;SDS011;63771;52.580;9.734;2023-05-07T01:27:11;13.38;;;11.07;;
75191;SDS011;63771;52.580;9.734;2023-05-07T01:29:36;15.13;;;11.33;;
75191;SDS011;63771;52.580;9.734;2023-05-07T01:32:01;17.53;;;11.37;;
75191;SDS011;63771;52.580;9.734;2023-05-07T01:34:30;14.98;;;12.50;;
75191;SDS011;63771;52.580;9.734;2023-05-07T01:36:57;15.75;;;11.68;;
75191;SDS011;63771;52.580;9.734;2023-05-07T01:39:24;17.30;;;12.50;;
75191;SDS011;63771;52.580;9.734;2023-05-07T01:41:50;16.60;;;12.00;;
75191;SDS011;63771;52.580;9.734;2023-05-07T01:44:16;14.50;;;11.13;;
75191;SDS011;63771;52.580;9.734;2023-05-07T01:46:43;19.33;;;12.13;;
75191;SDS011;63771;52.580;9.734;2023-05-07T01:49:08;21.05;;;11.57;;
75191;SDS011;63771;52.580;9.734;2023-05-07T01:51:34;22.25;;;14.05;;
75191;SDS011;63771;52.580;9.734;2023-05-07T01:54:00;18.08;;;13.27;;
75191;SDS011;63771;52.580;9.734;2023-05-07T01:56:26;17.77;;;12.40;;
75191;SDS011;63771;52.580;9.734;2023-05-07T01:58:51;16.70;;;12.30;;
75191;SDS011;63771;52.580;9.734;2023-05-07T02:01:17;18.88;;;12.60;;
75191;SDS011;63771;52.580;9.734;2023-05-07T02:03:43;16.30;;;11.65;;
75191;SDS011;63771;52.580;9.734;2023-05-07T02:06:08;16.25;;;11.30;;
75191;SDS011;63771;52.580;9.734;2023-05-07T02:08:33;16.95;;;12.40;;
75191;SDS011;63771;52.580;9.734;2023-05-07T02:10:59;15.32;;;11.57;;
75191;SDS011;63771;52.580;9.734;2023-05-07T02:13:26;18.38;;;11.82;;
75191;SDS011;63771;52.580;9.734;2023-05-07T02:15:53;14.38;;;11.02;;
75191;SDS011;63771;52.580;9.734;2023-05-07T02:18:19;13.20;;;11.40;;
75191;SDS011;63771;52.580;9.734;2023-05-07T02:20:44;15.03;;;10.87;;
75191;SDS011;63771;52.580;9.734;2023-05-07T02:23:09;14.43;;;10.87;;
75191;SDS011;63771;52.580;9.734;2023-05-07T02:25:34;15.67;;;11.37;;
75191;SDS011;63771;52.580;9.734;2023-05-07T02:28:00;14.73;;;10.50;;
75191;SDS011;63771;52.580;9.734;2023-05-07T02:30:25;15.23;;;9.93;;
75191;SDS011;63771;52.580;9.734;2023-05-07T02:32:51;13.18;;;10.07;;
75191;SDS011;63771;52.580;9.734;2023-05-07T02:35:16;15.77;;;11.73;;
75191;SDS011;63771;52.580;9.734;2023-05-07T02:37:42;13.40;;;10.73;;
75191;SDS011;63771;52.580;9.734;2023-05-07T02:40:07;13.82;;;10.40;;
75191;SDS011;63771;52.580;9.734;2023-05-07T02:42:33;14.75;;;10.45;;
75191;SDS011;63771;52.580;9.734;2023-05-07T02:44:58;14.07;;;9.83;;
75191;SDS011;63771;52.580;9.734;2023-05-07T02:47:24;12.15;;;10.05;;
75191;SDS011;63771;52.580;9.734;2023-05-07T02:49:52;12.27;;;9.45;;
75191;SDS011;63771;52.580;9.734;2023-05-07T02:52:18;12.75;;;9.63;;
75191;SDS011;63771;52.580;9.734;2023-05-07T02:54:43;13.63;;;10.60;;
75191;SDS011;63771;52.580;9.734;2023-05-07T02:57:08;20.13;;;10.80;;
75191;SDS011;63771;52.580;9.734;2023-05-07T02:59:33;14.60;;;11.17;;
75191;SDS011;63771;52.580;9.734;2023-05-07T03:01:59;13.10;;;10.17;;
75191;SDS011;63771;52.580;9.734;2023-05-07T03:04:24;14.97;;;10.90;;
75191;SDS011;63771;52.580;9.734;2023-05-07T03:06:49;14.20;;;10.23;;
75191;SDS011;63771;52.580;9.734;2023-05-07T03:09:15;14.30;;;10.57;;
75191;SDS011;63771;52.580;9.734;2023-05-07T03:11:41;14.85;;;10.32;;
75191;SDS011;63771;52.580;9.734;2023-05-07T03:14:06;15.30;;;11.10;;
75191;SDS011;63771;52.580;9.734;2023-05-07T03:16:32;14.73;;;10.30;;
75191;SDS011;63771;52.580;9.734;2023-05-07T03:18:57;13.00;;;9.57;;
75191;SDS011;63771;52.580;9.734;2023-05-07T03:21:22;12.17;;;10.07;;
75191;SDS011;63771;52.580;9.734;2023-05-07T03:23:47;12.17;;;9.17;;
75191;SDS011;63771;52.580;9.734;2023-05-07T03:26:13;12.73;;;9.13;;
75191;SDS011;63771;52.580;9.734;2023-05-07T03:28:38;9.90;;;8.03;;
75191;SDS011;63771;52.580;9.734;2023-05-07T03:31:03;9.60;;;7.67;;
75191;SDS011;63771;52.580;9.734;2023-05-07T03:33:30;9.77;;;7.38;;
75191;SDS011;63771;52.580;9.734;2023-05-07T03:35:58;9.05;;;6.88;;
75191;SDS011;63771;52.580;9.734;2023-05-07T03:38:23;11.00;;;7.50;;
75191;SDS011;63771;52.580;9.734;2023-05-07T03:40:48;9.23;;;7.67;;
75191;SDS011;63771;52.580;9.734;2023-05-07T03:43:13;8.77;;;7.40;;
75191;SDS011;63771;52.580;9.734;2023-05-07T03:45:39;8.60;;;7.72;;
75191;SDS011;63771;52.580;9.734;2023-05-07T03:48:04;12.30;;;8.27;;
75191;SDS011;63771;52.580;9.734;2023-05-07T03:50:29;9.67;;;7.27;;
75191;SDS011;63771;52.580;9.734;2023-05-07T03:52:55;9.17;;;7.50;;
75191;SDS011;63771;52.580;9.734;2023-05-07T03:55:20;9.63;;;7.23;;
75191;SDS011;63771;52.580;9.734;2023-05-07T03:57:46;9.38;;;7.50;;
75191;SDS011;63771;52.580;9.734;2023-05-07T04:00:11;8.97;;;7.30;;
75191;SDS011;63771;52.580;9.734;2023-05-07T04:02:37;9.07;;;6.95;;
75191;SDS011;63771;52.580;9.734;2023-05-07T04:05:02;8.50;;;7.70;;
75191;SDS011;63771;52.580;9.734;2023-05-07T04:07:28;7.97;;;6.35;;
75191;SDS011;63771;52.580;9.734;2023-05-07T04:09:53;10.00;;;6.93;;
75191;SDS011;63771;52.580;9.734;2023-05-07T04:12:18;9.27;;;7.70;;
75191;SDS011;63771;52.580;9.734;2023-05-07T04:14:44;8.80;;;6.80;;
75191;SDS011;63771;52.580;9.734;2023-05-07T04:17:09;9.57;;;7.55;;
75191;SDS011;63771;52.580;9.734;2023-05-07T04:19:35;9.02;;;8.02;;
75191;SDS011;63771;52.580;9.734;2023-05-07T04:22:01;8.85;;;7.57;;
75191;SDS011;63771;52.580;9.734;2023-05-07T04:24:26;8.63;;;7.00;;
75191;SDS011;63771;52.580;9.734;2023-05-07T04:26:52;8.20;;;6.67;;
75191;SDS011;63771;52.580;9.734;2023-05-07T04:29:17;10.15;;;7.80;;
75191;SDS011;63771;52.580;9.734;2023-05-07T04:31:43;8.60;;;7.28;;
75191;SDS011;63771;52.580;9.734;2023-05-07T04:34:11;11.18;;;7.63;;
75191;SDS011;63771;52.580;9.734;2023-05-07T04:36:37;9.07;;;7.63;;
75191;SDS011;63771;52.580;9.734;2023-05-07T04:39:03;10.75;;;8.60;;
75191;SDS011;63771;52.580;9.734;2023-05-07T04:41:28;10.25;;;7.97;;
75191;SDS011;63771;52.580;9.734;2023-05-07T04:43:54;9.03;;;7.57;;
75191;SDS011;63771;52.580;9.734;2023-05-07T04:46:19;9.48;;;7.63;;
75191;SDS011;63771;52.580;9.734;2023-05-07T04:48:44;9.98;;;8.85;;
75191;SDS011;63771;52.580;9.734;2023-05-07T04:51:10;9.38;;;7.30;;
75191;SDS011;63771;52.580;9.734;2023-05-07T04:53:35;9.88;;;8.20;;
75191;SDS011;63771;52.580;9.734;2023-05-07T04:56:01;9.23;;;8.27;;
75191;SDS011;63771;52.580;9.734;2023-05-07T04:58:26;9.13;;;7.97;;
75191;SDS011;63771;52.580;9.734;2023-05-07T05:00:52;9.32;;;7.53;;
75191;SDS011;63771;52.580;9.734;2023-05-07T05:03:17;11.23;;;7.63;;
75191;SDS011;63771;52.580;9.734;2023-05-07T05:05:43;9.07;;;7.73;;
75191;SDS011;63771;52.580;9.734;2023-05-07T05:08:08;9.65;;;8.20;;
75191;SDS011;63771;52.580;9.734;2023-05-07T05:10:33;11.37;;;8.80;;
75191;SDS011;63771;52.580;9.734;2023-05-07T05:12:59;10.57;;;8.75;;
75191;SDS011;63771;52.580;9.734;2023-05-07T05:15:24;8.97;;;8.07;;
75191;SDS011;63771;52.580;9.734;2023-05-07T05:17:49;10.07;;;8.13;;
75191;SDS011;63771;52.580;9.734;2023-05-07T05:20:15;10.33;;;8.60;;
75191;SDS011;63771;52.580;9.734;2023-05-07T05:22:41;8.65;;;7.70;;
75191;SDS011;63771;52.580;9.734;2023-05-07T05:25:07;10.82;;;8.15;;
75191;SDS011;63771;52.580;9.734;2023-05-07T05:27:32;8.85;;;7.82;;
75191;SDS011;63771;52.580;9.734;2023-05-07T05:29:59;9.32;;;7.72;;
75191;SDS011;63771;52.580;9.734;2023-05-07T05:32:24;9.47;;;7.80;;
75191;SDS011;63771;52.580;9.734;2023-05-07T05:34:50;10.75;;;8.40;;
75191;SDS011;63771;52.580;9.734;2023-05-07T05:37:15;11.00;;;7.67;;
75191;SDS011;63771;52.580;9.734;2023-05-07T05:39:41;8.77;;;7.20;;
75191;SDS011;63771;52.580;9.734;2023-05-07T05:42:07;10.05;;;7.47;;
75191;SDS011;63771;52.580;9.734;2023-05-07T05:44:32;9.23;;;7.97;;
75191;SDS011;63771;52.580;9.734;2023-05-07T05:46:58;8.77;;;7.95;;
75191;SDS011;63771;52.580;9.734;2023-05-07T05:49:24;9.05;;;7.43;;
75191;SDS011;63771;52.580;9.734;2023-05-07T05:51:50;9.60;;;8.02;;
75191;SDS011;63771;52.580;9.734;2023-05-07T05:54:15;9.00;;;8.02;;
75191;SDS011;63771;52.580;9.734;2023-05-07T05:56:41;11.13;;;8.70;;
75191;SDS011;63771;52.580;9.734;2023-05-07T05:59:06;8.05;;;7.35;;
75191;SDS011;63771;52.580;9.734;2023-05-07T06:01:32;8.48;;;7.57;;
75191;SDS011;63771;52.580;9.734;2023-05-07T06:03:57;8.02;;;6.90;;
75191;SDS011;63771;52.580;9.734;2023-05-07T06:06:23;8.43;;;7.63;;
75191;SDS011;63771;52.580;9.734;2023-05-07T06:08:48;9.50;;;7.60;;
75191;SDS011;63771;52.580;9.734;2023-05-07T06:11:13;7.50;;;6.90;;
75191;SDS011;63771;52.580;9.734;2023-05-07T06:13:39;8.40;;;7.60;;
75191;SDS011;63771;52.580;9.734;2023-05-07T06:16:04;9.82;;;8.10;;
75191;SDS011;63771;52.580;9.734;2023-05-07T06:18:30;10.07;;;9.07;;
75191;SDS011;63771;52.580;9.734;2023-05-07T06:20:55;9.63;;;8.70;;
75191;SDS011;63771;52.580;9.734;2023-05-07T06:23:21;8.70;;;7.73;;
75191;SDS011;63771;52.580;9.734;2023-05-07T06:25:49;8.88;;;7.80;;
75191;SDS011;63771;52.580;9.734;2023-05-07T06:28:15;9.75;;;7.88;;
75191;SDS011;63771;52.580;9.734;2023-05-07T06:30:41;10.00;;;9.02;;
75191;SDS011;63771;52.580;9.734;2023-05-07T06:33:06;9.17;;;8.27;;
75191;SDS011;63771;52.580;9.734;2023-05-07T06:35:31;8.07;;;7.37;;
75191;SDS011;63771;52.580;9.734;2023-05-07T06:37:56;8.37;;;7.40;;
75191;SDS011;63771;52.580;9.734;2023-05-07T06:40:22;8.97;;;8.17;;
75191;SDS011;63771;52.580;9.734;2023-05-07T06:42:47;8.20;;;7.47;;
75191;SDS011;63771;52.580;9.734;2023-05-07T06:45:12;8.57;;;7.87;;
75191;SDS011;63771;52.580;9.734;2023-05-07T06:47:38;8.47;;;7.10;;
75191;SDS011;63771;52.580;9.734;2023-05-07T06:50:03;8.63;;;7.03;;
75191;SDS011;63771;52.580;9.734;2023-05-07T06:52:28;8.52;;;7.65;;
75191;SDS011;63771;52.580;9.734;2023-05-07T06:54:54;8.00;;;7.20;;
75191;SDS011;63771;52.580;9.734;2023-05-07T06:57:19;8.63;;;7.73;;
75191;SDS011;63771;52.580;9.734;2023-05-07T06:59:44;9.33;;;7.93;;
75191;SDS011;63771;52.580;9.734;2023-05-07T07:02:10;7.47;;;6.77;;
75191;SDS011;63771;52.580;9.734;2023-05-07T07:04:35;7.70;;;7.00;;
75191;SDS011;63771;52.580;9.734;2023-05-07T07:07:00;7.87;;;7.17;;
75191;SDS011;63771;52.580;9.734;2023-05-07T07:09:26;8.10;;;7.40;;
75191;SDS011;63771;52.580;9.734;2023-05-07T07:11:51;10.43;;;7.75;;
75191;SDS011;63771;52.580;9.734;2023-05-07T07:14:16;9.10;;;8.20;;
75191;SDS011;63771;52.580;9.734;2023-05-07T07:16:42;10.93;;;9.30;;
75191;SDS011;63771;52.580;9.734;2023-05-07T07:19:07;7.70;;;7.00;;
75191;SDS011;63771;52.580;9.734;2023-05-07T07:21:33;14.18;;;10.52;;
75191;SDS011;63771;52.580;9.734;2023-05-07T07:23:58;10.20;;;9.20;;
75191;SDS011;63771;52.580;9.734;2023-05-07T07:26:23;8.67;;;7.93;;
75191;SDS011;63771;52.580;9.734;2023-05-07T07:28:49;9.80;;;8.43;;
75191;SDS011;63771;52.580;9.734;2023-05-07T07:31:14;9.88;;;8.30;;
75191;SDS011;63771;52.580;9.734;2023-05-07T07:33:40;7.57;;;6.88;;
75191;SDS011;63771;52.580;9.734;2023-05-07T07:36:05;8.30;;;7.53;;
75191;SDS011;63771;52.580;9.734;2023-05-07T07:38:32;9.25;;;8.35;;
75191;SDS011;63771;52.580;9.734;2023-05-07T07:40:57;8.35;;;7.55;;
75191;SDS011;63771;52.580;9.734;2023-05-07T07:43:23;8.57;;;7.60;;
75191;SDS011;63771;52.580;9.734;2023-05-07T07:45:48;9.53;;;8.53;;
75191;SDS011;63771;52.580;9.734;2023-05-07T07:48:13;8.13;;;7.43;;
75191;SDS011;63771;52.580;9.734;2023-05-07T07:50:39;10.05;;;9.05;;
75191;SDS011;63771;52.580;9.734;2023-05-07T07:53:04;9.73;;;7.97;;
75191;SDS011;63771;52.580;9.734;2023-05-07T07:55:29;9.15;;;8.15;;
75191;SDS011;63771;52.580;9.734;2023-05-07T07:57:56;8.23;;;7.50;;
75191;SDS011;63771;52.580;9.734;2023-05-07T08:00:21;8.25;;;7.45;;
75191;SDS011;63771;52.580;9.734;2023-05-07T08:02:46;10.68;;;8.23;;
75191;SDS011;63771;52.580;9.734;2023-05-07T08:05:12;10.37;;;8.30;;
75191;SDS011;63771;52.580;9.734;2023-05-07T08:07:37;8.32;;;7.43;;
75191;SDS011;63771;52.580;9.734;2023-05-07T08:10:02;8.43;;;7.50;;
75191;SDS011;63771;52.580;9.734;2023-05-07T08:12:28;8.32;;;7.38;;
75191;SDS011;63771;52.580;9.734;2023-05-07T08:14:53;7.72;;;6.93;;
75191;SDS011;63771;52.580;9.734;2023-05-07T08:17:19;7.95;;;7.25;;
75191;SDS011;63771;52.580;9.734;2023-05-07T08:19:47;9.05;;;8.25;;
75191;SDS011;63771;52.580;9.734;2023-05-07T08:22:12;8.73;;;7.93;;
75191;SDS011;63771;52.580;9.734;2023-05-07T08:24:37;8.50;;;7.60;;
75191;SDS011;63771;52.580;9.734;2023-05-07T08:27:03;7.80;;;7.10;;
75191;SDS011;63771;52.580;9.734;2023-05-07T08:29:28;8.27;;;7.57;;
75191;SDS011;63771;52.580;9.734;2023-05-07T08:31:53;8.73;;;7.95;;
75191;SDS011;63771;52.580;9.734;2023-05-07T08:34:19;9.73;;;8.40;;
75191;SDS011;63771;52.580;9.734;2023-05-07T08:36:44;7.32;;;6.30;;
75191;SDS011;63771;52.580;9.734;2023-05-07T08:39:11;7.53;;;6.82;;
75191;SDS011;63771;52.580;9.734;2023-05-07T08:41:37;7.28;;;6.57;;
75191;SDS011;63771;52.580;9.734;2023-05-07T08:44:03;7.93;;;7.13;;
75191;SDS011;63771;52.580;9.734;2023-05-07T08:46:31;8.00;;;6.15;;
75191;SDS011;63771;52.580;9.734;2023-05-07T08:48:57;7.53;;;6.85;;
75191;SDS011;63771;52.580;9.734;2023-05-07T08:51:23;6.95;;;6.32;;
75191;SDS011;63771;52.580;9.734;2023-05-07T08:53:48;7.82;;;6.80;;
75191;SDS011;63771;52.580;9.734;2023-05-07T08:56:15;7.57;;;6.80;;
75191;SDS011;63771;52.580;9.734;2023-05-07T08:58:42;7.22;;;6.63;;
75191;SDS011;63771;52.580;9.734;2023-05-07T09:01:08;7.07;;;6.47;;
75191;SDS011;63771;52.580;9.734;2023-05-07T09:03:37;7.00;;;6.40;;
75191;SDS011;63771;52.580;9.734;2023-05-07T09:06:04;7.22;;;6.53;;
75191;SDS011;63771;52.580;9.734;2023-05-07T09:08:29;9.00;;;7.57;;
75191;SDS011;63771;52.580;9.734;2023-05-07T09:10:55;7.43;;;6.72;;
75191;SDS011;63771;52.580;9.734;2023-05-07T09:13:20;7.90;;;7.15;;
75191;SDS011;63771;52.580;9.734;2023-05-07T09:15:46;6.97;;;6.38;;
75191;SDS011;63771;52.580;9.734;2023-05-07T09:18:14;7.03;;;6.32;;
75191;SDS011;63771;52.580;9.734;2023-05-07T09:20:40;6.78;;;6.05;;
75191;SDS011;63771;52.580;9.734;2023-05-07T09:23:09;7.13;;;6.10;;
75191;SDS011;63771;52.580;9.734;2023-05-07T09:25:35;6.95;;;6.22;;
75191;SDS011;63771;52.580;9.734;2023-05-07T09:28:01;9.07;;;7.50;;
75191;SDS011;63771;52.580;9.734;2023-05-07T09:30:28;7.78;;;6.97;;
75191;SDS011;63771;52.580;9.734;2023-05-07T09:32:56;7.30;;;6.60;;
75191;SDS011;63771;52.580;9.734;2023-05-07T09:35:22;7.35;;;6.53;;
75191;SDS011;63771;52.580;9.734;2023-05-07T09:37:51;7.32;;;6.03;;
75191;SDS011;63771;52.580;9.734;2023-05-07T09:40:21;7.13;;;6.50;;
75191;SDS011;63771;52.580;9.734;2023-05-07T09:42:51;6.80;;;6.20;;
75191;SDS011;63771;52.580;9.734;2023-05-07T09:45:21;6.97;;;6.38;;
75191;SDS011;63771;52.580;9.734;2023-05-07T09:47:54;6.15;;;5.65;;
75191;SDS011;63771;52.580;9.734;2023-05-07T09:50:22;7.63;;;6.93;;
75191;SDS011;63771;52.580;9.734;2023-05-07T09:52:52;8.25;;;6.32;;
75191;SDS011;63771;52.580;9.734;2023-05-07T09:55:18;5.90;;;5.40;;
75191;SDS011;63771;52.580;9.734;2023-05-07T09:57:44;8.07;;;7.38;;
75191;SDS011;63771;52.580;9.734;2023-05-07T10:00:11;6.53;;;6.03;;
75191;SDS011;63771;52.580;9.734;2023-05-07T10:02:37;7.28;;;6.68;;
75191;SDS011;63771;52.580;9.734;2023-05-07T10:05:11;7.22;;;6.13;;
75191;SDS011;63771;52.580;9.734;2023-05-07T10:07:38;5.00;;;4.60;;
75191;SDS011;63771;52.580;9.734;2023-05-07T10:10:05;7.07;;;6.40;;
75191;SDS011;63771;52.580;9.734;2023-05-07T10:12:31;7.03;;;6.43;;
75191;SDS011;63771;52.580;9.734;2023-05-07T10:15:03;6.32;;;5.80;;
75191;SDS011;63771;52.580;9.734;2023-05-07T10:17:36;6.97;;;6.38;;
75191;SDS011;63771;52.580;9.734;2023-05-07T10:20:02;7.07;;;6.38;;
75191;SDS011;63771;52.580;9.734;2023-05-07T10:22:30;6.55;;;6.05;;
75191;SDS011;63771;52.580;9.734;2023-05-07T10:25:03;6.20;;;5.70;;
75191;SDS011;63771;52.580;9.734;2023-05-07T10:27:34;6.20;;;5.68;;
75191;SDS011;63771;52.580;9.734;2023-05-07T10:32:48;8.68;;;7.88;;
75191;SDS011;63771;52.580;9.734;2023-05-07T10:35:17;8.35;;;7.55;;
75191;SDS011;63771;52.580;9.734;2023-05-07T10:37:46;7.35;;;6.75;;
75191;SDS011;63771;52.580;9.734;2023-05-07T10:40:13;8.65;;;7.72;;
75191;SDS011;63771;52.580;9.734;2023-05-07T10:42:38;7.60;;;6.95;;
75191;SDS011;63771;52.580;9.734;2023-05-07T10:45:13;6.22;;;5.72;;
75191;SDS011;63771;52.580;9.734;2023-05-07T10:50:36;8.20;;;7.50;;
75191;SDS011;63771;52.580;9.734;2023-05-07T10:55:43;6.30;;;5.70;;
75191;SDS011;63771;52.580;9.734;2023-05-07T10:58:25;7.45;;;6.75;;
75191;SDS011;63771;52.580;9.734;2023-05-07T11:00:58;7.43;;;6.82;;
75191;SDS011;63771;52.580;9.734;2023-05-07T11:03:25;7.90;;;7.18;;
75191;SDS011;63771;52.580;9.734;2023-05-07T11:06:10;5.78;;;5.32;;
75191;SDS011;63771;52.580;9.734;2023-05-07T11:17:09;8.25;;;7.00;;
75191;SDS011;63771;52.580;9.734;2023-05-07T11:19:47;6.95;;;6.38;;
75191;SDS011;63771;52.580;9.734;2023-05-07T11:25:04;6.80;;;6.20;;
75191;SDS011;63771;52.580;9.734;2023-05-07T11:27:30;7.18;;;6.55;;
75191;SDS011;63771;52.580;9.734;2023-05-07T11:29:57;7.05;;;6.45;;
75191;SDS011;63771;52.580;9.734;2023-05-07T11:32:23;5.60;;;5.15;;
75191;SDS011;63771;52.580;9.734;2023-05-07T11:34:56;6.40;;;5.90;;
75191;SDS011;63771;52.580;9.734;2023-05-07T11:37:23;7.03;;;6.43;;
75191;SDS011;63771;52.580;9.734;2023-05-07T11:39:49;8.43;;;6.53;;
75191;SDS011;63771;52.580;9.734;2023-05-07T11:42:27;6.30;;;5.65;;
75191;SDS011;63771;52.580;9.734;2023-05-07T11:45:03;7.95;;;6.03;;
75191;SDS011;63771;52.580;9.734;2023-05-07T11:47:32;6.85;;;6.15;;
75191;SDS011;63771;52.580;9.734;2023-05-07T11:50:02;6.80;;;6.30;;
75191;SDS011;63771;52.580;9.734;2023-05-07T11:52:29;6.72;;;5.85;;
75191;SDS011;63771;52.580;9.734;2023-05-07T11:54:55;7.07;;;6.47;;
75191;SDS011;63771;52.580;9.734;2023-05-07T11:57:22;7.05;;;6.38;;
75191;SDS011;63771;52.580;9.734;2023-05-07T11:59:52;7.95;;;7.32;;
75191;SDS011;63771;52.580;9.734;2023-05-07T12:02:21;6.72;;;6.13;;
75191;SDS011;63771;52.580;9.734;2023-05-07T12:04:46;6.30;;;5.80;;
75191;SDS011;63771;52.580;9.734;2023-05-07T12:20:38;16.35;;;6.57;;
75191;SDS011;63771;52.580;9.734;2023-05-07T12:23:04;6.80;;;6.20;;
75191;SDS011;63771;52.580;9.734;2023-05-07T12:25:30;5.93;;;5.43;;
75191;SDS011;63771;52.580;9.734;2023-05-07T12:27:56;6.57;;;5.97;;
75191;SDS011;63771;52.580;9.734;2023-05-07T12:30:23;6.05;;;5.55;;
75191;SDS011;63771;52.580;9.734;2023-05-07T12:32:52;7.10;;;6.40;;
75191;SDS011;63771;52.580;9.734;2023-05-07T12:35:29;6.70;;;6.10;;
75191;SDS011;63771;52.580;9.734;2023-05-07T12:37:56;6.18;;;5.68;;
75191;SDS011;63771;52.580;9.734;2023-05-07T12:40:35;4.68;;;4.38;;
75191;SDS011;63771;52.580;9.734;2023-05-07T12:43:02;5.30;;;4.90;;
75191;SDS011;63771;52.580;9.734;2023-05-07T12:45:28;5.20;;;4.70;;
75191;SDS011;63771;52.580;9.734;2023-05-07T12:47:53;4.97;;;4.68;;
75191;SDS011;63771;52.580;9.734;2023-05-07T12:50:18;6.23;;;5.73;;
75191;SDS011;63771;52.580;9.734;2023-05-07T12:52:47;5.82;;;5.43;;
75191;SDS011;63771;52.580;9.734;2023-05-07T12:55:16;5.57;;;4.80;;
75191;SDS011;63771;52.580;9.734;2023-05-07T12:57:42;5.60;;;5.05;;
75191;SDS011;63771;52.580;9.734;2023-05-07T13:00:13;8.00;;;4.88;;
75191;SDS011;63771;52.580;9.734;2023-05-07T13:02:39;6.18;;;5.18;;
75191;SDS011;63771;52.580;9.734;2023-05-07T13:05:06;5.05;;;4.65;;
75191;SDS011;63771;52.580;9.734;2023-05-07T13:07:32;5.78;;;5.32;;
75191;SDS011;63771;52.580;9.734;2023-05-07T13:09:57;6.20;;;5.63;;
75191;SDS011;63771;52.580;9.734;2023-05-07T13:12:23;6.13;;;5.53;;
75191;SDS011;63771;52.580;9.734;2023-05-07T13:14:48;6.37;;;5.87;;
75191;SDS011;63771;52.580;9.734;2023-05-07T13:17:13;6.17;;;5.67;;
75191;SDS011;63771;52.580;9.734;2023-05-07T13:19:39;6.03;;;5.53;;
75191;SDS011;63771;52.580;9.734;2023-05-07T13:22:05;6.43;;;5.93;;
75191;SDS011;63771;52.580;9.734;2023-05-07T13:24:30;6.55;;;5.95;;
75191;SDS011;63771;52.580;9.734;2023-05-07T13:26:55;7.33;;;6.07;;
75191;SDS011;63771;52.580;9.734;2023-05-07T13:29:21;7.22;;;5.55;;
75191;SDS011;63771;52.580;9.734;2023-05-07T13:31:53;5.50;;;5.10;;
75191;SDS011;63771;52.580;9.734;2023-05-07T13:34:19;5.32;;;4.82;;
75191;SDS011;63771;52.580;9.734;2023-05-07T13:36:44;5.70;;;5.20;;
75191;SDS011;63771;52.580;9.734;2023-05-07T13:39:10;5.53;;;5.03;;
75191;SDS011;63771;52.580;9.734;2023-05-07T13:41:35;8.60;;;5.87;;
75191;SDS011;63771;52.580;9.734;2023-05-07T13:44:01;6.37;;;5.77;;
75191;SDS011;63771;52.580;9.734;2023-05-07T13:46:26;6.90;;;6.00;;
75191;SDS011;63771;52.580;9.734;2023-05-07T13:48:51;5.30;;;4.80;;
75191;SDS011;63771;52.580;9.734;2023-05-07T13:51:17;8.03;;;5.07;;
75191;SDS011;63771;52.580;9.734;2023-05-07T13:53:43;6.75;;;6.25;;
75191;SDS011;63771;52.580;9.734;2023-05-07T13:56:08;5.43;;;4.93;;
75191;SDS011;63771;52.580;9.734;2023-05-07T13:58:33;6.53;;;6.00;;
75191;SDS011;63771;52.580;9.734;2023-05-07T14:01:00;7.30;;;6.32;;
75191;SDS011;63771;52.580;9.734;2023-05-07T14:03:25;5.80;;;5.30;;
75191;SDS011;63771;52.580;9.734;2023-05-07T14:05:51;6.32;;;5.72;;
75191;SDS011;63771;52.580;9.734;2023-05-07T14:08:16;6.33;;;5.77;;
75191;SDS011;63771;52.580;9.734;2023-05-07T14:10:44;5.88;;;5.32;;
75191;SDS011;63771;52.580;9.734;2023-05-07T14:13:11;5.68;;;5.03;;
75191;SDS011;63771;52.580;9.734;2023-05-07T14:15:36;6.68;;;5.53;;
75191;SDS011;63771;52.580;9.734;2023-05-07T14:18:02;5.68;;;5.18;;
75191;SDS011;63771;52.580;9.734;2023-05-07T14:20:27;5.70;;;5.30;;
75191;SDS011;63771;52.580;9.734;2023-05-07T14:22:53;5.93;;;5.43;;
75191;SDS011;63771;52.580;9.734;2023-05-07T14:25:18;8.23;;;5.93;;
75191;SDS011;63771;52.580;9.734;2023-05-07T14:27:43;7.28;;;5.90;;
75191;SDS011;63771;52.580;9.734;2023-05-07T14:30:09;7.47;;;6.50;;
75191;SDS011;63771;52.580;9.734;2023-05-07T14:32:35;5.63;;;5.13;;
75191;SDS011;63771;52.580;9.734;2023-05-07T14:35:00;5.40;;;5.00;;
75191;SDS011;63771;52.580;9.734;2023-05-07T14:37:26;5.32;;;4.82;;
75191;SDS011;63771;52.580;9.734;2023-05-07T14:39:51;4.87;;;4.47;;
75191;SDS011;63771;52.580;9.734;2023-05-07T14:42:17;4.35;;;4.05;;
75191;SDS011;63771;52.580;9.734;2023-05-07T14:44:42;4.55;;;4.25;;
75191;SDS011;63771;52.580;9.734;2023-05-07T14:47:09;4.35;;;3.92;;
75191;SDS011;63771;52.580;9.734;2023-05-07T14:49:35;5.07;;;4.57;;
75191;SDS011;63771;52.580;9.734;2023-05-07T14:52:00;4.82;;;4.43;;
75191;SDS011;63771;52.580;9.734;2023-05-07T14:54:26;4.45;;;4.05;;
75191;SDS011;63771;52.580;9.734;2023-05-07T14:56:51;5.07;;;4.63;;
75191;SDS011;63771;52.580;9.734;2023-05-07T14:59:16;6.93;;;4.68;;
75191;SDS011;63771;52.580;9.734;2023-05-07T15:01:45;8.32;;;5.68;;
75191;SDS011;63771;52.580;9.734;2023-05-07T15:04:11;4.30;;;3.92;;
75191;SDS011;63771;52.580;9.734;2023-05-07T15:06:36;5.13;;;4.70;;
75191;SDS011;63771;52.580;9.734;2023-05-07T15:09:02;8.50;;;4.83;;